createdAt,value
2022-08-21T00:01:59.885Z,19.80691
2022-08-21T00:07:00.894Z,19.87993
2022-08-21T00:12:01.877Z,20.0069
2022-08-21T00:17:02.759Z,20.11804
2022-08-21T00:22:03.675Z,20.03791
2022-08-21T00:27:04.623Z,20.15939
2022-08-21T00:32:05.504Z,20.3794
2022-08-21T00:37:06.484Z,20.09284
2022-08-21T00:42:07.400Z,19.86894
2022-08-21T00:47:08.321Z,19.78107
2022-08-21T00:52:09.239Z,19.65442
2022-08-21T00:57:10.164Z,19.60079
2022-08-21T01:07:11.545Z,19.64829
2022-08-21T01:12:12.559Z,19.60273
2022-08-21T01:17:13.809Z,19.56203
2022-08-21T01:22:15.094Z,19.75748
2022-08-21T01:27:16.071Z,19.82048
2022-08-21T01:32:17.109Z,19.59013
2022-08-21T01:37:18.022Z,19.42569
2022-08-21T01:42:18.913Z,19.37723
2022-08-21T01:47:19.828Z,19.29388
2022-08-21T01:52:20.767Z,19.25898
2022-08-21T01:57:21.671Z,19.23281
2022-08-21T02:02:24.606Z,19.14849
2022-08-21T02:07:25.556Z,19.04511
2022-08-21T02:12:26.449Z,19.04317
2022-08-21T02:17:27.366Z,18.92913
2022-08-21T02:22:28.334Z,18.87647
2022-08-21T02:27:29.226Z,18.82898
2022-08-21T02:32:30.179Z,18.78536
2022-08-21T02:37:31.097Z,18.77308
2022-08-21T02:42:31.991Z,18.75467
2022-08-21T02:47:32.893Z,18.71267
2022-08-21T02:52:33.801Z,18.65549
2022-08-21T02:57:34.744Z,18.61801
2022-08-21T03:07:36.171Z,19.11134
2022-08-21T03:12:37.184Z,18.80668
2022-08-21T03:17:38.095Z,18.68262
2022-08-21T03:22:39.333Z,18.5479
2022-08-21T03:27:40.337Z,18.45938
2022-08-21T03:32:44.239Z,18.47812
2022-08-21T03:37:45.176Z,18.37668
2022-08-21T03:42:46.172Z,18.36279
2022-08-21T03:47:47.103Z,18.31303
2022-08-21T03:52:48.017Z,18.30786
2022-08-21T03:57:49.272Z,18.25197
2022-08-21T04:02:50.329Z,18.26005
2022-08-21T04:07:51.337Z,18.2271
2022-08-21T04:12:52.336Z,18.18251
2022-08-21T04:17:53.266Z,18.18542
2022-08-21T04:22:54.189Z,18.13308
2022-08-21T04:27:55.226Z,18.16701
2022-08-21T04:32:56.138Z,18.30496
2022-08-21T04:37:57.110Z,18.15667
2022-08-21T04:42:58.155Z,18.11887
2022-08-21T04:47:59.268Z,18.10369
2022-08-21T04:53:00.336Z,18.06427
2022-08-21T04:58:01.368Z,18.31271
2022-08-21T05:03:02.445Z,18.42482
2022-08-21T05:08:03.406Z,18.31594
2022-08-21T05:13:04.424Z,18.30463
2022-08-21T05:18:05.504Z,18.25133
2022-08-21T05:23:06.574Z,18.30173
2022-08-21T05:28:07.601Z,18.3111
2022-08-21T05:33:09.025Z,18.33597
2022-08-21T05:38:17.758Z,18.36989
2022-08-21T05:43:19.334Z,18.38572
2022-08-21T05:48:20.374Z,18.42837
2022-08-21T05:53:21.406Z,18.47618
2022-08-21T05:58:22.339Z,18.4988
2022-08-21T06:03:23.309Z,18.54371
2022-08-21T06:08:24.677Z,18.56277
2022-08-21T06:13:25.624Z,18.60929
2022-08-21T06:18:26.568Z,18.6445
2022-08-21T06:23:33.096Z,18.73109
2022-08-21T06:28:34.557Z,18.74982
2022-08-21T06:33:35.477Z,18.81088
2022-08-21T06:38:36.478Z,18.87485
2022-08-21T06:43:39.850Z,19.09454
2022-08-21T06:48:41.064Z,19.18112
2022-08-21T06:53:41.959Z,19.20245
2022-08-21T06:58:42.964Z,19.27772
2022-08-21T07:03:43.865Z,19.53747
2022-08-21T07:08:44.805Z,20.00884
2022-08-21T07:13:45.708Z,20.31253
2022-08-21T07:18:46.637Z,20.31382
2022-08-21T07:23:47.561Z,20.29767
2022-08-21T07:28:48.483Z,20.19783
2022-08-21T07:33:49.368Z,20.15616
2022-08-21T07:38:52.520Z,20.13936
2022-08-21T07:43:53.889Z,20.26503
2022-08-21T07:48:54.804Z,20.29185
2022-08-21T07:58:56.227Z,20.93154
2022-08-21T08:03:57.130Z,21.04203
2022-08-21T08:08:58.267Z,21.22651
2022-08-21T08:18:59.701Z,21.84683
2022-08-21T08:24:00.615Z,22.02581
2022-08-21T08:29:20.546Z,22.02
2022-08-21T08:34:25.398Z,21.98123
2022-08-21T08:39:29.707Z,21.75862
2022-08-21T08:44:30.975Z,21.46042
2022-08-21T08:49:31.897Z,21.45784
2022-08-21T08:54:32.827Z,21.78253
2022-08-21T08:59:33.800Z,21.88301
2022-08-21T09:04:34.760Z,21.82453
2022-08-21T09:09:35.659Z,21.88818
2022-08-21T09:14:36.691Z,22.08041
2022-08-21T09:19:37.591Z,22.25068
2022-08-21T09:24:38.490Z,22.02743
2022-08-21T09:29:39.472Z,22.04584
2022-08-21T09:34:40.417Z,22.33436
2022-08-21T09:39:45.591Z,22.45131
2022-08-21T09:44:49.275Z,22.53047
2022-08-21T09:49:50.208Z,22.92011
2022-08-21T09:54:51.183Z,23.4309
2022-08-21T09:59:52.160Z,23.78242
2022-08-21T10:04:53.108Z,23.77015
2022-08-21T10:09:54.034Z,23.47323
2022-08-21T10:14:54.917Z,23.32138
2022-08-21T10:19:55.828Z,23.38793
2022-08-21T10:24:56.789Z,23.71554
2022-08-21T10:29:57.722Z,23.74721
2022-08-21T10:34:58.608Z,23.74268
2022-08-21T10:39:59.600Z,24.24476
2022-08-21T10:50:01.019Z,24.38854
2022-08-21T10:55:02.111Z,24.19662
2022-08-21T11:00:04.333Z,24.15268
2022-08-21T11:05:05.322Z,24.12522
2022-08-21T11:10:06.255Z,24.16044
2022-08-21T11:20:09.930Z,24.58272
2022-08-21T11:30:11.338Z,24.82762
2022-08-21T11:35:12.249Z,24.66058
2022-08-21T11:40:13.270Z,24.85379
2022-08-21T11:45:14.242Z,25.06283
2022-08-21T11:50:29.691Z,25.11582
2022-08-21T11:55:36.913Z,25.23633
2022-08-21T12:00:37.854Z,25.22147
2022-08-21T12:05:38.787Z,25.34198
2022-08-21T12:10:39.666Z,25.52582
2022-08-21T12:15:40.588Z,25.82371
2022-08-21T12:25:42.164Z,26.90738
2022-08-21T12:30:43.233Z,26.99688
2022-08-21T12:35:44.214Z,27.16521
2022-08-21T12:40:45.153Z,27.32773
2022-08-21T12:45:46.054Z,27.56166
2022-08-21T12:50:47.004Z,27.92676
2022-08-21T12:55:49.951Z,28.12159
2022-08-21T13:00:50.963Z,28.63921
2022-08-21T13:05:51.900Z,28.54615
2022-08-21T13:10:52.813Z,28.42111
2022-08-21T13:15:53.738Z,28.66538
2022-08-21T13:20:54.633Z,29.22823
2022-08-21T13:25:55.556Z,29.66862
2022-08-21T13:30:56.526Z,30.26573
2022-08-21T13:35:57.437Z,30.67705
2022-08-21T13:40:58.390Z,30.7756
2022-08-21T13:45:59.298Z,30.73941
2022-08-21T13:51:00.229Z,31.02311
2022-08-21T13:56:01.234Z,30.73004
2022-08-21T14:01:05.019Z,30.63537
2022-08-21T14:06:07.602Z,30.31517
2022-08-21T14:11:08.502Z,29.79076
2022-08-21T14:16:09.492Z,29.65247
2022-08-21T14:21:10.386Z,29.4628
2022-08-21T14:26:11.296Z,29.05052
2022-08-21T14:31:12.280Z,28.89414
2022-08-21T14:36:13.758Z,28.66247
2022-08-21T14:41:14.718Z,28.59785
2022-08-21T14:46:15.691Z,28.50867
2022-08-21T14:51:16.587Z,28.47378
2022-08-21T14:56:19.533Z,28.33775
2022-08-21T15:01:21.760Z,28.12159
2022-08-21T15:06:22.668Z,28.03274
2022-08-21T15:11:42.037Z,27.97135
2022-08-21T15:16:43.961Z,27.80689
2022-08-21T15:21:44.924Z,27.55843
2022-08-21T15:26:45.827Z,27.33
2022-08-21T15:31:46.787Z,27.07281
2022-08-21T15:36:47.719Z,26.86182
2022-08-21T15:41:48.720Z,26.67895
2022-08-21T15:46:49.650Z,26.51223
2022-08-21T15:51:50.621Z,26.30674
2022-08-21T15:56:51.576Z,26.11256
2022-08-21T16:01:52.711Z,25.93389
2022-08-21T16:06:57.707Z,25.79076
2022-08-21T16:12:02.869Z,25.67089
2022-08-21T16:17:03.864Z,25.54488
2022-08-21T16:22:04.834Z,25.36751
2022-08-21T16:27:07.999Z,25.17947
2022-08-21T16:32:09.489Z,25.0176
2022-08-21T16:37:10.635Z,24.8903
2022-08-21T16:42:11.648Z,24.74006
2022-08-21T16:47:12.672Z,24.62633
2022-08-21T16:52:28.288Z,24.50291
2022-08-21T16:57:29.287Z,24.40275
2022-08-21T17:02:30.278Z,24.31487
2022-08-21T17:07:35.174Z,24.22053
2022-08-21T17:12:37.799Z,24.0354
2022-08-21T17:17:38.777Z,23.922
2022-08-21T17:22:39.692Z,23.79664
2022-08-21T17:27:40.583Z,23.66514
2022-08-21T17:32:41.566Z,23.54722
2022-08-21T17:37:42.499Z,23.40441
2022-08-21T17:42:43.404Z,23.26516
2022-08-21T17:47:44.353Z,23.12333
2022-08-21T17:52:45.286Z,23.02575
2022-08-21T17:57:46.246Z,22.90589
2022-08-21T18:02:47.217Z,22.73853
2022-08-21T18:07:48.144Z,22.67101
2022-08-21T18:12:49.063Z,22.53854
2022-08-21T18:17:50.020Z,22.32951
2022-08-21T18:22:50.925Z,22.18025
2022-08-21T18:27:51.851Z,22.01353
2022-08-21T18:32:52.843Z,21.87881
2022-08-21T18:37:53.819Z,21.69013
2022-08-21T18:42:55.817Z,21.57124
2022-08-21T18:47:57.053Z,21.38159
2022-08-21T18:52:58.007Z,21.23685
2022-08-21T18:57:58.899Z,21.14025
2022-08-21T19:03:00.100Z,21.02879
2022-08-21T19:08:01.104Z,20.89503
2022-08-21T19:13:02.259Z,20.72736
2022-08-21T19:18:03.978Z,20.6272
2022-08-21T19:23:05.239Z,20.50314
2022-08-21T19:28:11.298Z,20.43497
2022-08-21T19:33:12.648Z,20.39233
2022-08-21T19:38:24.567Z,20.41656
2022-08-21T19:43:25.832Z,20.19945
2022-08-21T19:48:30.287Z,20.05277
2022-08-21T19:53:31.269Z,19.92839
2022-08-21T19:58:32.190Z,19.7381
2022-08-21T20:03:33.200Z,19.67607
2022-08-21T20:08:35.796Z,19.58076
2022-08-21T20:13:37.766Z,19.49386
2022-08-21T20:18:44.223Z,19.53973
2022-08-21T20:28:45.627Z,19.57107
2022-08-21T20:33:46.612Z,19.37626
2022-08-21T20:38:50.611Z,19.27966
2022-08-21T20:43:51.593Z,19.1388
2022-08-21T20:48:54.621Z,19.03994
2022-08-21T20:53:55.548Z,18.94237
2022-08-21T20:58:58.645Z,18.83608
2022-08-21T21:04:00.775Z,18.77244
2022-08-21T21:09:02.501Z,18.67003
2022-08-21T21:14:03.484Z,18.57052
2022-08-21T21:19:04.421Z,18.50171
2022-08-21T21:24:05.340Z,18.40737
2022-08-21T21:29:10.595Z,18.36796
